createdAt,value
2019-05-09T00:01:35.253Z,1.47
2019-05-09T00:04:05.060Z,1.63
2019-05-09T00:06:34.683Z,1.87
2019-05-09T00:09:05.439Z,1.83
2019-05-09T00:11:35.073Z,1.80
2019-05-09T00:14:04.820Z,1.83
2019-05-09T00:16:34.490Z,1.73
2019-05-09T00:19:04.121Z,1.80
2019-05-09T00:21:43.557Z,1.87
2019-05-09T00:24:13.888Z,1.80
2019-05-09T00:26:44.253Z,1.87
2019-05-09T00:29:19.950Z,1.43
2019-05-09T00:32:05.334Z,1.80
2019-05-09T00:34:45.088Z,1.80
2019-05-09T00:37:14.701Z,1.70
2019-05-09T00:39:44.311Z,1.83
2019-05-09T00:42:13.946Z,1.97
2019-05-09T00:44:45.766Z,1.73
2019-05-09T00:47:33.725Z,1.80
2019-05-09T00:50:05.199Z,1.70
2019-05-09T00:52:34.596Z,2.00
2019-05-09T00:55:04.287Z,2.03
2019-05-09T00:57:33.918Z,1.67
2019-05-09T01:00:08.979Z,1.80
2019-05-09T01:02:38.613Z,1.50
2019-05-09T01:05:08.504Z,2.30
2019-05-09T01:07:38.125Z,1.57
2019-05-09T01:10:07.822Z,1.40
2019-05-09T01:12:37.445Z,1.57
2019-05-09T01:15:08.084Z,1.67
2019-05-09T01:17:37.683Z,1.73
2019-05-09T01:20:07.819Z,1.73
2019-05-09T01:22:37.430Z,1.60
2019-05-09T01:25:07.303Z,1.50
2019-05-09T01:27:36.900Z,1.80
2019-05-09T01:30:06.673Z,1.60
2019-05-09T01:33:06.946Z,1.90
2019-05-09T01:35:36.551Z,1.47
2019-05-09T01:38:06.195Z,1.40
2019-05-09T01:40:35.901Z,1.60
2019-05-09T01:43:05.496Z,1.70
2019-05-09T01:45:35.185Z,1.90
2019-05-09T01:48:04.768Z,1.60
2019-05-09T01:50:34.423Z,1.50
2019-05-09T01:53:04.224Z,1.67
2019-05-09T01:55:51.122Z,1.43
2019-05-09T01:58:20.743Z,1.70
2019-05-09T02:00:51.177Z,1.47
2019-05-09T02:03:20.767Z,1.67
2019-05-09T02:05:50.529Z,1.40
2019-05-09T02:08:20.141Z,1.60
2019-05-09T02:10:49.978Z,1.60
2019-05-09T02:13:19.594Z,1.80
2019-05-09T02:16:17.578Z,1.60
2019-05-09T02:18:55.303Z,1.77
2019-05-09T02:21:24.918Z,1.70
2019-05-09T02:23:54.505Z,1.47
2019-05-09T02:26:24.187Z,1.50
2019-05-09T02:28:53.988Z,1.50
2019-05-09T02:31:24.658Z,1.50
2019-05-09T02:33:54.484Z,1.60
2019-05-09T02:36:24.109Z,1.87
2019-05-09T02:38:53.710Z,1.67
2019-05-09T02:41:23.293Z,1.60
2019-05-09T02:43:52.917Z,1.67
2019-05-09T02:46:50.984Z,1.70
2019-05-09T02:49:20.593Z,1.60
2019-05-09T02:51:50.197Z,1.53
2019-05-09T02:54:19.826Z,1.40
2019-05-09T02:56:49.589Z,1.83
2019-05-09T02:59:38.635Z,1.30
2019-05-09T03:02:28.838Z,1.40
2019-05-09T03:04:58.428Z,1.40
2019-05-09T03:07:48.274Z,1.43
2019-05-09T03:10:19.210Z,1.43
2019-05-09T03:12:50.102Z,1.33
2019-05-09T03:15:20.669Z,1.90
2019-05-09T03:17:50.276Z,1.40
2019-05-09T03:20:39.311Z,1.60
2019-05-09T03:23:09.431Z,1.70
2019-05-09T03:25:40.875Z,1.50
2019-05-09T03:28:21.379Z,1.53
2019-05-09T03:30:52.312Z,1.40
2019-05-09T03:33:21.904Z,1.50
2019-05-09T03:35:51.488Z,1.50
2019-05-09T03:38:21.090Z,1.50
2019-05-09T03:40:50.720Z,1.40
2019-05-09T03:43:20.321Z,1.50
2019-05-09T03:45:58.379Z,1.47
2019-05-09T03:48:32.991Z,1.40
2019-05-09T03:51:02.613Z,1.60
2019-05-09T03:53:32.215Z,1.50
2019-05-09T03:56:03.953Z,1.43
2019-05-09T03:58:33.534Z,1.60
2019-05-09T04:01:03.134Z,1.20
2019-05-09T04:03:32.783Z,1.40
2019-05-09T04:06:03.149Z,1.50
2019-05-09T04:08:32.818Z,1.50
2019-05-09T04:11:02.452Z,1.50
2019-05-09T04:13:38.514Z,1.40
2019-05-09T04:16:08.202Z,1.47
2019-05-09T04:18:40.251Z,1.30
2019-05-09T04:21:09.085Z,1.23
2019-05-09T04:23:38.713Z,1.20
2019-05-09T04:26:32.977Z,1.60
2019-05-09T04:29:02.583Z,1.53
2019-05-09T04:31:32.179Z,1.30
2019-05-09T04:34:01.786Z,1.40
2019-05-09T04:36:40.415Z,1.50
2019-05-09T04:39:18.022Z,1.27
2019-05-09T04:41:43.567Z,1.43
2019-05-09T04:44:20.859Z,1.67
2019-05-09T04:46:49.104Z,1.47
2019-05-09T04:49:19.210Z,1.57
2019-05-09T04:51:48.809Z,1.37
2019-05-09T04:54:18.428Z,1.43
2019-05-09T04:56:48.015Z,1.70
2019-05-09T04:59:18.073Z,1.50
2019-05-09T05:02:05.067Z,1.60
2019-05-09T05:04:34.713Z,1.40
2019-05-09T05:07:04.324Z,1.47
2019-05-09T05:09:33.943Z,1.60
2019-05-09T05:12:03.564Z,1.40
2019-05-09T05:14:33.165Z,1.53
2019-05-09T05:17:10.028Z,1.50
2019-05-09T05:19:37.652Z,1.50
2019-05-09T05:22:24.188Z,1.50
2019-05-09T05:25:02.154Z,1.50
2019-05-09T05:27:31.798Z,1.40
2019-05-09T05:30:01.409Z,1.27
2019-05-09T05:32:57.920Z,1.50
2019-05-09T05:35:57.379Z,1.70
2019-05-09T05:38:27.561Z,1.33
2019-05-09T05:40:57.859Z,1.40
2019-05-09T05:43:40.509Z,1.60
2019-05-09T05:46:18.231Z,1.73
2019-05-09T05:48:48.637Z,1.80
2019-05-09T05:51:18.480Z,1.50
2019-05-09T05:53:48.217Z,1.53
2019-05-09T05:56:17.870Z,1.50
2019-05-09T05:58:48.956Z,1.60
2019-05-09T06:01:18.987Z,1.70
2019-05-09T06:03:48.688Z,1.77
2019-05-09T06:06:18.316Z,2.90
2019-05-09T06:08:48.536Z,1.43
2019-05-09T06:11:18.227Z,1.70
2019-05-09T06:13:56.491Z,1.53
2019-05-09T06:16:22.141Z,1.60
2019-05-09T06:18:50.355Z,1.70
2019-05-09T06:21:19.965Z,1.53
2019-05-09T06:23:49.571Z,1.20
2019-05-09T06:26:19.207Z,1.30
2019-05-09T06:28:48.830Z,1.57
2019-05-09T06:31:37.669Z,1.43
2019-05-09T06:34:08.333Z,1.73
2019-05-09T06:36:58.503Z,1.40
2019-05-09T06:39:28.592Z,1.57
2019-05-09T06:41:58.249Z,1.87
2019-05-09T06:44:37.462Z,1.43
2019-05-09T06:47:27.741Z,1.30
2019-05-09T06:49:58.368Z,1.83
2019-05-09T06:52:28.287Z,1.70
2019-05-09T06:55:17.315Z,1.40
2019-05-09T06:57:48.857Z,1.70
2019-05-09T07:00:28.355Z,1.40
2019-05-09T07:03:14.736Z,1.90
2019-05-09T07:06:01.487Z,1.50
2019-05-09T07:09:01.016Z,1.50
2019-05-09T07:11:33.903Z,1.80
2019-05-09T07:14:03.507Z,2.03
2019-05-09T07:16:33.168Z,1.87
2019-05-09T07:19:02.790Z,1.73
2019-05-09T07:21:49.710Z,1.73
2019-05-09T07:24:19.964Z,1.53
2019-05-09T07:26:49.576Z,1.60
2019-05-09T07:29:28.491Z,1.50
2019-05-09T07:32:07.615Z,1.70
2019-05-09T07:34:58.921Z,2.03
2019-05-09T07:37:28.536Z,1.87
2019-05-09T07:39:58.148Z,2.30
2019-05-09T07:42:28.462Z,2.10
2019-05-09T07:44:59.138Z,1.60
2019-05-09T07:47:53.790Z,2.10
2019-05-09T07:50:38.847Z,2.10
2019-05-09T07:53:08.978Z,2.00
2019-05-09T07:55:38.688Z,2.10
2019-05-09T07:58:08.361Z,2.23
2019-05-09T08:01:00.984Z,2.00
2019-05-09T08:03:28.225Z,2.23
2019-05-09T08:06:18.392Z,2.20
2019-05-09T08:09:12.909Z,2.00
2019-05-09T08:12:01.544Z,2.53
2019-05-09T08:14:31.170Z,1.97
2019-05-09T08:17:00.797Z,2.30
2019-05-09T08:19:34.577Z,2.23
2019-05-09T08:22:04.163Z,2.20
2019-05-09T08:24:33.941Z,2.23
2019-05-09T08:27:22.453Z,2.17
2019-05-09T08:30:10.994Z,2.10
2019-05-09T08:32:40.638Z,2.30
2019-05-09T08:35:29.164Z,2.30
2019-05-09T08:38:19.738Z,2.20
2019-05-09T08:41:09.123Z,2.50
2019-05-09T08:43:58.936Z,2.50
2019-05-09T08:46:37.839Z,2.20
2019-05-09T08:49:08.143Z,2.03
2019-05-09T08:51:56.037Z,2.40
2019-05-09T08:54:34.160Z,2.23
2019-05-09T08:57:18.045Z,2.50
2019-05-09T09:00:08.833Z,2.60
2019-05-09T09:02:57.640Z,2.43
2019-05-09T09:05:28.909Z,2.67
2019-05-09T09:08:23.193Z,2.40
2019-05-09T09:10:52.877Z,2.40
2019-05-09T09:13:22.542Z,2.30
2019-05-09T09:16:08.634Z,2.20
2019-05-09T09:18:42.427Z,2.47
2019-05-09T09:21:31.001Z,2.50
2019-05-09T09:24:00.657Z,2.60
2019-05-09T09:26:49.225Z,2.30
2019-05-09T09:29:18.884Z,2.23
2019-05-09T09:31:48.589Z,2.33
2019-05-09T09:34:18.291Z,2.00
2019-05-09T09:36:48.172Z,2.33
2019-05-09T09:39:19.382Z,2.57
2019-05-09T09:41:49.035Z,2.10
2019-05-09T09:44:22.170Z,2.30
2019-05-09T09:46:54.451Z,2.30
2019-05-09T09:49:24.137Z,2.47
2019-05-09T09:51:53.845Z,2.33
2019-05-09T09:54:42.391Z,2.17
2019-05-09T09:57:30.965Z,2.30
2019-05-09T10:00:09.620Z,2.10
2019-05-09T10:02:39.255Z,2.20
2019-05-09T10:05:09.470Z,2.00
2019-05-09T10:07:49.555Z,2.23
2019-05-09T10:10:33.967Z,1.87
2019-05-09T10:13:18.441Z,1.90
2019-05-09T10:15:58.891Z,1.80
2019-05-09T10:18:47.538Z,2.03
2019-05-09T10:21:20.963Z,2.17
2019-05-09T10:23:50.635Z,2.00
2019-05-09T10:26:20.350Z,1.87
2019-05-09T10:28:49.970Z,2.20
2019-05-09T10:31:39.215Z,2.10
2019-05-09T10:34:11.006Z,1.90
2019-05-09T10:36:40.346Z,2.30
2019-05-09T10:39:09.998Z,2.00
2019-05-09T10:41:58.565Z,2.00
2019-05-09T10:44:37.386Z,2.47
2019-05-09T10:47:20.342Z,2.03
2019-05-09T10:49:50.034Z,2.20
2019-05-09T10:52:19.836Z,2.37
2019-05-09T10:54:49.497Z,2.07
2019-05-09T10:57:19.176Z,2.10
2019-05-09T10:59:48.859Z,2.33
2019-05-09T11:02:18.523Z,2.33
2019-05-09T11:04:49.144Z,2.00
2019-05-09T11:07:19.039Z,2.23
2019-05-09T11:09:48.733Z,2.27
2019-05-09T11:12:18.834Z,2.07
2019-05-09T11:14:48.559Z,2.40
2019-05-09T11:17:21.672Z,2.10
2019-05-09T11:19:49.529Z,2.20
2019-05-09T11:22:19.199Z,2.10
2019-05-09T11:24:51.155Z,2.33
2019-05-09T11:27:20.156Z,2.50
2019-05-09T11:29:50.032Z,2.83
2019-05-09T11:32:19.671Z,2.43
2019-05-09T11:34:49.331Z,2.20
2019-05-09T11:37:22.136Z,2.50
2019-05-09T11:39:50.308Z,2.17
2019-05-09T11:42:19.985Z,2.20
2019-05-09T11:44:49.670Z,2.50
2019-05-09T11:47:32.165Z,2.60
2019-05-09T11:49:50.650Z,2.43
2019-05-09T11:52:20.288Z,2.30
2019-05-09T11:54:49.973Z,2.67
2019-05-09T11:57:19.634Z,2.70
2019-05-09T11:59:49.298Z,2.80
2019-05-09T12:02:19.115Z,2.73
2019-05-09T12:04:48.901Z,3.00
2019-05-09T12:07:18.618Z,2.80
2019-05-09T12:09:48.913Z,2.80
2019-05-09T12:12:19.460Z,2.53
2019-05-09T12:14:49.412Z,2.70
2019-05-09T12:17:19.840Z,2.43
2019-05-09T12:19:49.575Z,2.90
2019-05-09T12:22:19.395Z,2.23
2019-05-09T12:24:49.229Z,2.40
2019-05-09T12:27:19.076Z,2.07
2019-05-09T12:29:48.820Z,1.80
2019-05-09T12:32:18.791Z,2.00
2019-05-09T12:34:48.536Z,1.77
2019-05-09T12:37:18.358Z,1.90
2019-05-09T12:39:48.183Z,1.90
2019-05-09T12:42:18.816Z,1.80
2019-05-09T12:44:49.516Z,1.93
2019-05-09T12:47:19.460Z,1.70
2019-05-09T12:49:49.140Z,1.60
2019-05-09T12:52:18.832Z,1.90
2019-05-09T12:54:48.556Z,1.90
2019-05-09T12:57:19.327Z,2.10
2019-05-09T12:59:52.570Z,1.60
2019-05-09T13:02:20.539Z,1.43
2019-05-09T13:04:50.111Z,1.93
2019-05-09T13:07:19.812Z,2.00
2019-05-09T13:09:52.709Z,1.90
2019-05-09T13:12:20.727Z,2.07
2019-05-09T13:14:50.387Z,2.03
2019-05-09T13:17:48.102Z,1.80
2019-05-09T13:20:18.670Z,1.80
2019-05-09T13:22:48.314Z,2.00
2019-05-09T13:25:18.766Z,1.97
2019-05-09T13:27:52.490Z,1.90
2019-05-09T13:30:20.182Z,1.70
2019-05-09T13:32:49.909Z,1.83
2019-05-09T13:35:20.120Z,1.83
2019-05-09T13:37:49.948Z,1.87
2019-05-09T13:40:19.674Z,1.97
2019-05-09T13:42:49.694Z,1.80
2019-05-09T13:45:19.304Z,1.83
2019-05-09T13:47:49.711Z,1.80
2019-05-09T13:50:19.440Z,1.70
2019-05-09T13:52:49.097Z,2.00
2019-05-09T13:55:18.791Z,1.80
2019-05-09T13:57:48.860Z,1.80
2019-05-09T14:00:18.812Z,2.30
2019-05-09T14:02:49.014Z,2.30
2019-05-09T14:05:19.333Z,2.10
2019-05-09T14:07:53.949Z,1.90
2019-05-09T14:10:20.331Z,1.60
2019-05-09T14:13:04.841Z,1.93
2019-05-09T14:15:21.318Z,2.20
2019-05-09T14:17:53.949Z,1.97
2019-05-09T14:20:22.684Z,1.80
2019-05-09T14:22:52.338Z,1.67
2019-05-09T14:25:22.000Z,1.93
2019-05-09T14:27:52.416Z,2.00
2019-05-09T14:30:22.199Z,1.87
2019-05-09T14:32:51.827Z,2.00
2019-05-09T14:35:21.934Z,2.10
2019-05-09T14:37:51.580Z,2.20
2019-05-09T14:40:21.227Z,1.80
2019-05-09T14:42:50.877Z,1.90
2019-05-09T14:45:20.753Z,1.90
2019-05-09T14:47:50.387Z,1.90
2019-05-09T14:50:20.153Z,1.67
2019-05-09T14:52:50.522Z,1.60
2019-05-09T14:55:20.303Z,1.70
2019-05-09T14:57:49.944Z,1.50
2019-05-09T15:00:20.147Z,1.67
2019-05-09T15:02:49.785Z,1.90
2019-05-09T15:05:19.451Z,2.03
2019-05-09T15:07:49.146Z,1.63
2019-05-09T15:10:19.030Z,1.80
2019-05-09T15:12:48.870Z,1.50
2019-05-09T15:15:18.817Z,2.00
2019-05-09T15:17:49.330Z,1.80
2019-05-09T15:20:19.417Z,1.90
2019-05-09T15:22:49.062Z,1.63
2019-05-09T15:25:20.517Z,1.67
2019-05-09T15:27:50.003Z,1.60
2019-05-09T15:30:20.034Z,2.07
2019-05-09T15:32:51.775Z,1.50
2019-05-09T15:35:20.990Z,1.67
2019-05-09T15:37:50.674Z,1.60
2019-05-09T15:40:20.299Z,1.60
2019-05-09T15:42:49.930Z,1.70
2019-05-09T15:45:19.564Z,1.60
2019-05-09T15:47:49.186Z,1.67
2019-05-09T15:50:23.160Z,1.50
2019-05-09T15:52:50.206Z,1.63
2019-05-09T15:55:19.810Z,1.80
2019-05-09T15:57:49.506Z,1.60
2019-05-09T16:00:19.436Z,1.50
2019-05-09T16:02:49.092Z,1.70
2019-05-09T16:05:18.711Z,1.50
2019-05-09T16:07:48.787Z,1.47
2019-05-09T16:10:18.394Z,1.97
2019-05-09T16:12:48.657Z,1.40
2019-05-09T16:15:18.632Z,1.60
2019-05-09T16:17:48.654Z,1.50
2019-05-09T16:20:35.971Z,1.60
2019-05-09T16:22:49.700Z,1.40
2019-05-09T16:25:19.336Z,1.50
2019-05-09T16:27:48.966Z,1.53
2019-05-09T16:30:18.730Z,1.43
2019-05-09T16:32:48.351Z,1.67
2019-05-09T16:35:18.332Z,1.47
2019-05-09T16:37:58.185Z,1.40
2019-05-09T16:40:19.402Z,1.30
2019-05-09T16:42:49.050Z,1.50
2019-05-09T16:45:18.682Z,1.40
2019-05-09T16:47:48.711Z,1.70
2019-05-09T16:50:19.305Z,1.40
2019-05-09T16:52:49.083Z,1.20
2019-05-09T16:55:31.078Z,1.40
2019-05-09T16:57:57.697Z,1.30
2019-05-09T17:00:34.002Z,1.47
2019-05-09T17:03:03.613Z,1.50
2019-05-09T17:05:33.250Z,1.50
2019-05-09T17:08:02.864Z,1.40
2019-05-09T17:10:32.469Z,1.40
2019-05-09T17:13:02.084Z,1.40
2019-05-09T17:15:31.714Z,1.30
2019-05-09T17:18:01.327Z,1.40
2019-05-09T17:21:14.902Z,1.47
2019-05-09T17:23:33.370Z,1.43
2019-05-09T17:26:03.098Z,1.67
2019-05-09T17:28:32.699Z,1.53
2019-05-09T17:31:02.351Z,1.63
2019-05-09T17:33:31.980Z,1.70
2019-05-09T17:36:01.625Z,1.43
2019-05-09T17:38:31.279Z,1.77
2019-05-09T17:41:01.005Z,1.90
2019-05-09T17:43:30.623Z,2.13
2019-05-09T17:46:00.263Z,1.80
2019-05-09T17:48:29.870Z,1.80
2019-05-09T17:50:59.472Z,1.60
2019-05-09T17:53:32.898Z,1.80
2019-05-09T17:56:00.439Z,2.03
2019-05-09T17:58:33.260Z,2.17
2019-05-09T18:01:01.303Z,1.80
2019-05-09T18:03:30.937Z,1.97
2019-05-09T18:06:00.550Z,1.90
2019-05-09T18:08:30.192Z,2.00
2019-05-09T18:10:59.791Z,2.00
2019-05-09T18:13:31.312Z,1.87
2019-05-09T18:16:00.752Z,1.90
2019-05-09T18:18:30.419Z,2.00
2019-05-09T18:21:00.147Z,1.73
2019-05-09T18:23:29.780Z,1.90
2019-05-09T18:25:59.454Z,1.80
2019-05-09T18:28:29.382Z,1.60
2019-05-09T18:30:59.048Z,2.00
2019-05-09T18:33:34.040Z,2.10
2019-05-09T18:36:03.676Z,1.70
2019-05-09T18:38:35.015Z,1.67
2019-05-09T18:41:07.123Z,1.80
2019-05-09T18:43:35.891Z,2.07
2019-05-09T18:46:05.516Z,1.83
2019-05-09T18:48:35.167Z,1.87
2019-05-09T18:51:04.829Z,2.20
2019-05-09T18:53:34.495Z,2.40
2019-05-09T18:56:04.133Z,1.77
2019-05-09T18:58:35.955Z,2.13
2019-05-09T19:01:05.102Z,2.00
2019-05-09T19:03:34.821Z,1.67
2019-05-09T19:06:04.692Z,1.67
2019-05-09T19:08:34.415Z,1.93
2019-05-09T19:11:04.218Z,1.97
2019-05-09T19:13:33.893Z,1.73
2019-05-09T19:16:28.235Z,1.80
2019-05-09T19:19:15.149Z,1.97
2019-05-09T19:21:51.432Z,2.10
2019-05-09T19:24:21.050Z,1.80
2019-05-09T19:26:51.095Z,1.80
2019-05-09T19:29:20.719Z,2.07
2019-05-09T19:31:50.372Z,2.03
2019-05-09T19:34:19.973Z,2.40
2019-05-09T19:36:49.581Z,2.10
2019-05-09T19:39:19.205Z,2.07
2019-05-09T19:41:48.953Z,2.13
2019-05-09T19:44:18.608Z,1.93
2019-05-09T19:46:48.232Z,2.10
2019-05-09T19:49:17.849Z,2.10
2019-05-09T19:51:47.491Z,2.40
2019-05-09T19:54:17.166Z,2.20
2019-05-09T19:56:46.792Z,1.90
2019-05-09T19:59:16.472Z,2.03
2019-05-09T20:01:46.093Z,2.07
2019-05-09T20:04:15.720Z,1.97
2019-05-09T20:06:45.344Z,1.90
2019-05-09T20:09:21.608Z,2.00
2019-05-09T20:12:13.133Z,1.90
2019-05-09T20:14:45.658Z,2.10
2019-05-09T20:17:15.353Z,2.30
2019-05-09T20:19:44.980Z,2.00
2019-05-09T20:22:14.640Z,2.10
2019-05-09T20:24:44.261Z,2.30
2019-05-09T20:27:13.913Z,2.37
2019-05-09T20:29:43.557Z,2.20
2019-05-09T20:32:13.182Z,1.90
2019-05-09T20:34:42.804Z,2.00
2019-05-09T20:37:13.216Z,1.97
2019-05-09T20:39:42.987Z,2.30
2019-05-09T20:42:12.793Z,1.90
2019-05-09T20:44:42.800Z,1.90
2019-05-09T20:47:12.601Z,1.80
2019-05-09T20:49:42.499Z,2.20
2019-05-09T20:52:12.300Z,2.20
2019-05-09T20:54:42.082Z,2.13
2019-05-09T20:57:11.862Z,2.40
2019-05-09T20:59:41.676Z,2.10
2019-05-09T21:02:11.563Z,2.03
2019-05-09T21:04:41.464Z,2.10
2019-05-09T21:07:11.280Z,2.20
2019-05-09T21:09:41.423Z,1.97
2019-05-09T21:12:11.341Z,2.03
2019-05-09T21:14:41.145Z,2.00
2019-05-09T21:17:10.983Z,2.13
2019-05-09T21:19:40.859Z,2.90
2019-05-09T21:22:10.788Z,2.33
2019-05-09T21:24:40.712Z,2.13
2019-05-09T21:27:10.550Z,2.20
2019-05-09T21:29:40.407Z,2.00
2019-05-09T21:32:10.273Z,2.40
2019-05-09T21:34:39.902Z,2.50
2019-05-09T21:37:09.899Z,2.33
2019-05-09T21:39:39.605Z,2.17
2019-05-09T21:42:09.291Z,2.20
2019-05-09T21:44:38.958Z,2.13
2019-05-09T21:47:08.599Z,2.17
2019-05-09T21:49:38.257Z,2.10
2019-05-09T21:52:07.913Z,2.13
2019-05-09T21:54:37.587Z,2.40
2019-05-09T21:57:07.227Z,2.20
2019-05-09T21:59:36.877Z,2.50
2019-05-09T22:02:06.753Z,2.60
2019-05-09T22:04:36.469Z,2.80
2019-05-09T22:07:06.247Z,2.20
2019-05-09T22:09:35.857Z,2.23
2019-05-09T22:12:06.017Z,2.40
2019-05-09T22:14:35.675Z,2.23
2019-05-09T22:17:12.002Z,2.10
2019-05-09T22:19:41.647Z,2.10
2019-05-09T22:22:11.356Z,2.67
2019-05-09T22:24:41.000Z,2.23
2019-05-09T22:27:10.700Z,2.40
2019-05-09T22:29:40.312Z,2.10
2019-05-09T22:32:09.967Z,2.63
2019-05-09T22:34:39.579Z,2.37
2019-05-09T22:37:09.255Z,2.70
2019-05-09T22:39:38.992Z,2.53
2019-05-09T22:42:08.700Z,2.30
2019-05-09T22:44:38.347Z,2.80
2019-05-09T22:47:07.997Z,2.70
2019-05-09T22:49:37.641Z,2.60
2019-05-09T22:52:07.333Z,2.73
2019-05-09T22:54:36.932Z,2.50
2019-05-09T22:57:06.528Z,2.47
2019-05-09T22:59:36.168Z,2.57
2019-05-09T23:02:07.023Z,2.43
2019-05-09T23:04:36.926Z,2.80
2019-05-09T23:07:06.615Z,2.13
2019-05-09T23:09:36.335Z,2.67
2019-05-09T23:12:05.959Z,2.63
2019-05-09T23:14:35.685Z,2.67
2019-05-09T23:17:05.562Z,2.57
2019-05-09T23:19:35.119Z,2.50
2019-05-09T23:22:05.217Z,2.60
2019-05-09T23:24:35.698Z,3.20
2019-05-09T23:27:05.359Z,2.40
2019-05-09T23:29:34.968Z,2.27
2019-05-09T23:32:20.308Z,2.60
2019-05-09T23:34:49.959Z,2.70
2019-05-09T23:37:19.569Z,2.60
2019-05-09T23:39:49.430Z,2.77
2019-05-09T23:42:19.034Z,2.40
2019-05-09T23:44:48.730Z,2.40
2019-05-09T23:47:18.360Z,2.63
2019-05-09T23:49:48.012Z,2.60
2019-05-09T23:52:17.649Z,2.30
2019-05-09T23:55:04.888Z,2.30
2019-05-09T23:57:51.773Z,2.60
